Time;durP1;ratioP1;P1;durP2;ratioP2;P2;SDS_P1;SDS_P2;PMS_P1;PMS_P2;Temp;Humidity;BMP_temperature;BMP_pressure;BME280_temperature;BME280_humidity;BME280_pressure;Samples;Min_cycle;Max_cycle;Signal;HPM_P1;HPM_P2
2022/11/15 00:02:07;;;;;;;27.70;14.75;;;6.70;99.90;;;;;;5114933;28;20089;-80
2022/11/15 00:04:32;;;;;;;19.73;12.60;;;6.50;99.90;;;;;;5114360;28;20043;-81
2022/11/15 00:06:58;;;;;;;22.05;13.55;;;6.80;99.90;;;;;;5114547;28;20054;-81
2022/11/15 00:09:23;;;;;;;20.00;12.93;;;6.90;99.90;;;;;;5114370;28;20044;-81
2022/11/15 00:11:50;;;;;;;21.83;12.70;;;6.90;99.90;;;;;;5116284;28;20048;-81
2022/11/15 00:14:16;;;;;;;21.50;13.55;;;6.50;99.90;;;;;;5118391;28;20046;-81
2022/11/15 00:16:42;;;;;;;21.95;12.65;;;7.00;99.90;;;;;;5117084;28;20082;-81
2022/11/15 00:19:07;;;;;;;21.48;14.02;;;7.00;99.90;;;;;;5118526;28;20040;-80
2022/11/15 00:21:33;;;;;;;24.02;15.07;;;7.20;99.90;;;;;;5118080;28;20070;-81
2022/11/15 00:23:58;;;;;;;21.33;13.40;;;8.00;99.90;;;;;;5118993;28;20051;-81
2022/11/15 00:26:24;;;;;;;23.23;14.45;;;7.10;99.90;;;;;;5118026;28;20177;-81
2022/11/15 00:28:52;;;;;;;20.63;13.50;;;7.20;99.90;;;;;;5117220;28;20050;-82
2022/11/15 00:31:18;;;;;;;23.67;14.02;;;7.30;99.90;;;;;;5118339;28;20051;-81
2022/11/15 00:33:45;;;;;;;24.23;14.77;;;7.10;99.90;;;;;;5118184;28;20043;-81
2022/11/15 00:36:11;;;;;;;24.33;14.27;;;7.30;99.90;;;;;;5117930;28;20083;-81
2022/11/15 00:38:39;;;;;;;23.25;14.15;;;7.30;99.90;;;;;;5118074;28;20093;-81
2022/11/15 00:41:06;;;;;;;22.85;14.48;;;7.80;99.90;;;;;;5117827;28;20039;-81
2022/11/15 00:43:32;;;;;;;25.13;14.50;;;7.40;99.90;;;;;;5117543;28;20047;-81
2022/11/15 00:45:58;;;;;;;23.48;14.57;;;7.20;99.90;;;;;;5117410;28;20553;-81
2022/11/15 00:48:24;;;;;;;25.20;13.68;;;7.20;99.90;;;;;;5117594;28;20032;-81
2022/11/15 00:50:49;;;;;;;24.83;14.82;;;8.00;99.90;;;;;;5117804;28;20480;-80
2022/11/15 00:53:16;;;;;;;27.15;13.60;;;7.30;99.90;;;;;;5117567;28;20403;-81
2022/11/15 00:55:42;;;;;;;25.48;14.05;;;7.50;99.90;;;;;;5117461;28;20513;-82
2022/11/15 00:58:08;;;;;;;22.08;12.75;;;7.50;99.90;;;;;;5116622;28;20044;-82
2022/11/15 01:00:33;;;;;;;24.65;14.35;;;7.50;99.90;;;;;;5117702;28;20044;-80
2022/11/15 01:03:01;;;;;;;23.10;13.10;;;7.60;99.90;;;;;;5117468;28;20177;-81
2022/11/15 01:05:27;;;;;;;23.63;13.50;;;7.60;99.90;;;;;;5119675;28;20058;-81
2022/11/15 01:07:54;;;;;;;26.00;14.85;;;7.70;99.90;;;;;;5116017;28;20048;-81
2022/11/15 01:10:20;;;;;;;24.05;13.55;;;7.40;99.90;;;;;;5117398;28;20051;-81
2022/11/15 01:12:46;;;;;;;20.27;13.02;;;9.20;99.90;;;;;;5116137;28;20047;-81
2022/11/15 01:15:12;;;;;;;26.08;14.10;;;7.80;99.90;;;;;;5117183;28;20170;-81
2022/11/15 01:17:37;;;;;;;24.45;13.50;;;7.60;99.90;;;;;;5117344;28;20047;-81
2022/11/15 01:20:04;;;;;;;23.83;14.00;;;9.20;99.90;;;;;;5116931;28;20372;-81
2022/11/15 01:22:30;;;;;;;24.55;13.43;;;7.70;99.90;;;;;;5116817;28;20093;-81
2022/11/15 01:24:55;;;;;;;21.92;13.85;;;8.40;99.90;;;;;;5117124;28;20036;-81
2022/11/15 01:27:21;;;;;;;21.95;13.43;;;7.70;99.90;;;;;;5117107;28;20100;-81
2022/11/15 01:29:47;;;;;;;22.42;13.02;;;7.00;99.90;;;;;;5116948;28;20047;-81
2022/11/15 01:32:12;;;;;;;22.67;13.93;;;7.60;99.90;;;;;;5117034;28;20437;-81
2022/11/15 01:34:38;;;;;;;24.13;14.00;;;8.60;99.90;;;;;;5116894;28;20546;-82
2022/11/15 01:37:04;;;;;;;28.80;14.15;;;7.70;99.90;;;;;;5117690;28;20031;-80
2022/11/15 01:39:29;;;;;;;22.58;13.18;;;7.60;99.90;;;;;;5116839;28;20042;-82
2022/11/15 01:41:55;;;;;;;23.08;13.20;;;8.50;99.90;;;;;;5116773;28;20131;-82
2022/11/15 01:44:41;;;;;;;23.90;13.40;;;7.70;99.90;;;;;;5116502;28;20159;-80
2022/11/15 01:47:15;;;;;;;23.52;13.70;;;7.80;99.90;;;;;;5115210;28;20483;-82
2022/11/15 01:49:55;;;;;;;26.58;14.52;;;7.70;99.90;;;;;;5116804;28;20121;-81
2022/11/15 01:52:23;;;;;;;25.67;13.70;;;7.80;99.90;;;;;;5116663;28;20039;-80
2022/11/15 01:54:58;;;;;;;22.45;14.05;;;7.70;99.90;;;;;;5115259;28;20493;-81
2022/11/15 01:57:24;;;;;;;21.83;13.40;;;7.90;99.90;;;;;;5116224;28;20438;-81
2022/11/15 01:59:50;;;;;;;22.55;13.35;;;8.80;99.90;;;;;;5115649;28;20039;-80
2022/11/15 02:02:16;;;;;;;21.67;13.15;;;7.60;99.90;;;;;;5116526;28;20043;-81
2022/11/15 02:04:47;;;;;;;23.80;13.55;;;7.50;99.90;;;;;;5116964;28;20391;-81
2022/11/15 02:07:16;;;;;;;25.67;13.77;;;8.00;99.90;;;;;;5116273;28;20039;-82
2022/11/15 02:09:43;;;;;;;26.05;13.57;;;7.70;99.90;;;;;;5116303;28;20051;-81
2022/11/15 02:12:10;;;;;;;23.73;13.02;;;7.70;99.90;;;;;;5115975;28;20044;-81
2022/11/15 02:14:39;;;;;;;25.35;14.32;;;7.80;99.90;;;;;;5116027;28;20043;-81
2022/11/15 02:17:28;;;;;;;25.70;14.15;;;8.70;99.90;;;;;;5116075;28;20043;-81
2022/11/15 02:20:20;;;;;;;22.20;13.55;;;8.00;99.90;;;;;;5115127;28;20044;-81
2022/11/15 02:22:57;;;;;;;22.90;13.93;;;8.00;99.90;;;;;;5116028;28;20477;-81
2022/11/15 02:25:45;;;;;;;27.27;13.48;;;8.40;99.90;;;;;;5116341;28;20433;-82
2022/11/15 02:28:22;;;;;;;28.27;13.65;;;7.90;99.90;;;;;;5115844;28;20044;-81
2022/11/15 02:30:54;;;;;;;24.25;14.38;;;8.00;99.90;;;;;;5115435;28;20530;-81
2022/11/15 02:33:35;;;;;;;28.38;15.00;;;7.80;99.90;;;;;;5115497;28;20494;-80
2022/11/15 02:36:08;;;;;;;27.88;15.05;;;8.00;99.90;;;;;;5115602;28;20126;-81
2022/11/15 02:38:54;;;;;;;29.98;14.50;;;8.00;99.90;;;;;;5115642;28;20047;-81
2022/11/15 02:41:41;;;;;;;27.95;15.02;;;8.10;99.90;;;;;;5115736;28;20043;-81
2022/11/15 02:44:27;;;;;;;28.13;15.20;;;8.00;99.90;;;;;;5115485;28;20126;-81
2022/11/15 02:47:12;;;;;;;24.80;14.73;;;8.50;99.90;;;;;;5115225;28;20039;-81
2022/11/15 02:49:48;;;;;;;28.08;15.45;;;8.20;99.90;;;;;;5114539;28;20475;-81
2022/11/15 02:52:20;;;;;;;25.23;15.15;;;7.30;99.90;;;;;;5115431;28;20043;-82
2022/11/15 02:54:55;;;;;;;28.92;14.43;;;8.00;99.90;;;;;;5115397;28;20051;-81
2022/11/15 02:57:37;;;;;;;28.17;14.07;;;7.90;99.90;;;;;;5115278;28;20047;-81
2022/11/15 03:00:12;;;;;;;27.15;13.98;;;8.00;99.90;;;;;;5115203;28;20105;-81
2022/11/15 03:02:50;;;;;;;27.00;14.65;;;8.10;99.90;;;;;;5114307;28;20127;-81
2022/11/15 03:05:34;;;;;;;25.33;14.40;;;8.10;99.90;;;;;;5116649;28;20380;-80
2022/11/15 03:08:22;;;;;;;25.80;14.52;;;9.20;99.90;;;;;;5115060;28;20040;-81
2022/11/15 03:11:15;;;;;;;31.58;15.70;;;8.10;99.90;;;;;;5115218;28;20138;-81
2022/11/15 03:13:56;;;;;;;28.08;14.88;;;8.00;99.90;;;;;;5108108;28;20091;-80
2022/11/15 03:16:40;;;;;;;24.02;14.05;;;8.10;99.90;;;;;;5115096;28;20140;-81
2022/11/15 03:19:27;;;;;;;24.55;14.82;;;8.00;99.90;;;;;;5113979;28;20035;-81
2022/11/15 03:21:53;;;;;;;26.35;14.65;;;8.10;99.90;;;;;;5115000;28;20055;-79
2022/11/15 03:24:20;;;;;;;26.80;15.05;;;7.80;99.90;;;;;;5114731;28;20541;-81
2022/11/15 03:26:47;;;;;;;;;;;8.00;99.90;;;;;;5115202;28;20048;-81
2022/11/15 03:29:35;;;;;;;28.58;14.98;;;9.50;99.90;;;;;;5114717;28;19920;-81
2022/11/15 03:32:07;;;;;;;31.33;15.57;;;8.00;99.90;;;;;;5114546;28;20112;-80
2022/11/15 03:34:37;;;;;;;28.92;15.85;;;8.10;99.90;;;;;;5114763;28;20043;-81
2022/11/15 03:37:03;;;;;;;28.17;15.68;;;8.00;99.90;;;;;;5114742;28;20395;-81
2022/11/15 03:39:29;;;;;;;29.15;16.75;;;8.10;99.90;;;;;;5114769;28;20047;-80
2022/11/15 03:42:22;;;;;;;31.48;15.45;;;8.00;99.90;;;;;;5114653;28;20129;-80
2022/11/15 03:44:56;;;;;;;31.45;16.50;;;8.10;99.90;;;;;;5114884;28;20050;-81
2022/11/15 03:47:43;;;;;;;32.83;17.42;;;8.20;99.90;;;;;;5113827;28;20144;-80
2022/11/15 03:50:14;;;;;;;36.78;17.45;;;8.20;99.90;;;;;;5114605;28;20524;-81
2022/11/15 03:52:40;;;;;;;31.15;17.52;;;8.20;99.90;;;;;;5114586;28;20157;-81
2022/11/15 03:55:10;;;;;;;35.80;18.48;;;7.40;99.90;;;;;;5114884;28;20055;-81
2022/11/15 03:57:36;;;;;;;40.15;19.10;;;8.30;99.90;;;;;;5114451;28;20048;-81
2022/11/15 04:00:03;;;;;;;33.83;18.50;;;9.10;99.90;;;;;;5114240;28;20039;-81
2022/11/15 04:02:29;;;;;;;36.67;18.63;;;8.30;99.90;;;;;;5114171;28;20100;-82
2022/11/15 04:04:55;;;;;;;43.85;18.23;;;8.20;99.90;;;;;;5113497;28;20139;-82
2022/11/15 04:07:20;;;;;;;35.47;18.08;;;8.50;99.90;;;;;;5114970;28;20065;-82
2022/11/15 04:10:05;;;;;;;41.70;19.77;;;8.20;99.90;;;;;;5112954;28;20044;-81
2022/11/15 04:12:31;;;;;;;39.90;19.85;;;8.40;99.90;;;;;;5114272;28;20039;-82
2022/11/15 04:15:08;;;;;;;39.72;20.35;;;8.30;99.90;;;;;;5113561;28;20448;-81
2022/11/15 04:17:41;;;;;;;45.63;21.17;;;8.50;99.90;;;;;;5114328;28;20035;-81
2022/11/15 04:25:55;;;;;;;39.95;21.52;;;8.00;99.90;;;;;;5113834;28;20134;-82
2022/11/15 04:28:21;;;;;;;40.08;21.00;;;7.80;99.90;;;;;;5113958;28;20043;-80
2022/11/15 04:30:47;;;;;;;48.65;22.02;;;8.60;99.90;;;;;;5114398;28;20055;-80
2022/11/15 04:33:13;;;;;;;44.78;23.00;;;9.40;99.90;;;;;;5113893;28;20135;-81
2022/11/15 04:35:39;;;;;;;50.83;24.33;;;9.40;99.90;;;;;;5112948;28;20086;-81
2022/11/15 04:38:07;;;;;;;44.78;22.55;;;8.00;99.90;;;;;;5113984;28;20485;-82
2022/11/15 04:40:32;;;;;;;46.88;23.33;;;8.30;99.90;;;;;;5113756;28;20047;-81
2022/11/15 04:42:58;;;;;;;44.28;22.15;;;9.20;99.90;;;;;;5113761;28;20039;-81
2022/11/15 04:45:23;;;;;;;42.95;22.63;;;8.40;99.90;;;;;;5113630;28;20036;-80
2022/11/15 04:47:49;;;;;;;47.55;23.08;;;8.70;99.90;;;;;;5113915;28;20047;-80
2022/11/15 04:50:16;;;;;;;41.13;22.25;;;7.80;99.90;;;;;;5114000;28;20510;-80
2022/11/15 04:52:52;;;;;;;44.72;23.95;;;8.40;99.90;;;;;;5113650;28;20108;-81
2022/11/15 04:55:18;;;;;;;47.63;22.50;;;8.70;99.90;;;;;;5113787;28;20054;-80
2022/11/15 04:57:43;;;;;;;48.33;22.50;;;9.20;99.90;;;;;;5115422;28;20051;-80
2022/11/15 05:00:12;;;;;;;46.90;22.20;;;8.90;99.90;;;;;;5117477;28;20051;-80
2022/11/15 05:05:24;;;;;;;42.78;22.23;;;8.70;99.90;;;;;;5117654;28;20056;-82
2022/11/15 05:07:49;;;;;;;45.35;22.20;;;8.80;99.90;;;;;;5117999;28;20057;-80
2022/11/15 05:10:15;;;;;;;40.33;21.58;;;8.80;99.90;;;;;;5116371;28;20476;-81
2022/11/15 05:12:41;;;;;;;38.53;22.10;;;8.90;99.90;;;;;;5117673;28;20039;-81
2022/11/15 05:15:07;;;;;;;43.78;21.23;;;8.80;99.90;;;;;;5117065;28;20181;-81
2022/11/15 05:17:33;;;;;;;46.63;22.83;;;8.90;99.90;;;;;;5117379;28;20161;-82
2022/11/15 05:19:59;;;;;;;46.97;22.10;;;8.80;99.90;;;;;;5117185;28;20092;-80
2022/11/15 05:22:24;;;;;;;41.72;22.58;;;8.70;99.90;;;;;;5117039;28;20039;-81
2022/11/15 05:24:50;;;;;;;40.50;21.05;;;8.80;99.90;;;;;;5116903;28;20043;-82
2022/11/15 05:27:15;;;;;;;40.28;21.23;;;9.10;99.90;;;;;;5116901;28;20127;-80
2022/11/15 05:29:41;;;;;;;35.90;20.92;;;9.50;99.90;;;;;;5117012;28;20052;-80
2022/11/15 05:32:08;;;;;;;41.35;21.50;;;9.00;99.90;;;;;;5116049;28;20092;-82
2022/11/15 05:34:34;;;;;;;38.47;21.42;;;9.00;99.90;;;;;;5116906;28;20089;-81
2022/11/15 05:37:00;;;;;;;41.40;21.48;;;8.90;99.90;;;;;;5115976;28;20083;-81
2022/11/15 05:39:26;;;;;;;39.78;20.95;;;8.90;99.90;;;;;;5116909;28;20402;-82
2022/11/15 05:42:01;;;;;;;37.97;21.00;;;10.30;99.90;;;;;;5115534;28;20043;-81
2022/11/15 05:44:27;;;;;;;37.38;21.55;;;9.10;99.90;;;;;;5116759;28;20044;-80
2022/11/15 05:46:55;;;;;;;39.72;20.27;;;9.00;99.90;;;;;;5116945;28;20429;-81
2022/11/15 05:49:26;;;;;;;35.22;19.67;;;9.50;99.90;;;;;;5116869;28;20044;-81
2022/11/15 05:51:53;;;;;;;36.00;20.05;;;8.40;99.90;;;;;;5117035;28;20059;-80
2022/11/15 05:54:20;;;;;;;35.35;19.95;;;10.30;99.90;;;;;;5116695;28;20079;-81
2022/11/15 05:56:46;;;;;;;37.10;20.00;;;10.10;99.90;;;;;;5116345;28;20051;-82
2022/11/15 05:59:12;;;;;;;32.20;19.58;;;9.30;99.90;;;;;;5116411;28;20036;-81
2022/11/15 06:01:39;;;;;;;41.28;18.85;;;9.70;99.90;;;;;;5116471;28;20047;-80
2022/11/15 06:04:04;;;;;;;35.78;19.33;;;9.40;99.90;;;;;;5115258;28;20047;-81
2022/11/15 06:06:30;;;;;;;31.55;18.40;;;9.30;99.90;;;;;;5116397;28;20031;-80
2022/11/15 06:08:56;;;;;;;37.85;19.00;;;9.10;99.90;;;;;;5117485;28;20066;-81
2022/11/15 06:11:21;;;;;;;35.03;18.08;;;9.90;99.90;;;;;;5117514;28;20039;-86
2022/11/15 06:13:47;;;;;;;37.97;19.42;;;9.90;99.90;;;;;;5098174;28;20048;-78
2022/11/15 06:16:12;;;;;;;34.28;19.15;;;9.40;99.90;;;;;;5116138;28;20047;-80
2022/11/15 06:18:38;;;;;;;33.08;19.13;;;9.50;99.90;;;;;;5114839;28;20074;-80
2022/11/15 06:21:04;;;;;;;31.08;18.80;;;9.40;99.90;;;;;;5116098;28;20047;-80
2022/11/15 06:23:35;;;;;;;37.00;19.90;;;9.60;99.90;;;;;;5116026;28;20073;-80
2022/11/15 06:26:02;;;;;;;36.45;19.20;;;9.40;99.90;;;;;;5116252;28;20130;-79
2022/11/15 06:28:32;;;;;;;33.30;19.27;;;9.60;99.90;;;;;;5114734;28;20059;-80
2022/11/15 06:31:13;;;;;;;38.70;19.65;;;9.50;99.90;;;;;;5116355;28;20139;-80
2022/11/15 06:33:40;;;;;;;32.08;18.38;;;9.50;99.90;;;;;;5115857;28;20039;-81
2022/11/15 06:36:08;;;;;;;32.67;18.77;;;9.50;99.90;;;;;;5115787;28;20475;-80
2022/11/15 06:38:34;;;;;;;32.60;18.70;;;9.80;99.90;;;;;;5115901;28;20112;-79
2022/11/15 06:41:05;;;;;;;34.25;18.90;;;9.60;99.90;;;;;;5115650;28;20043;-81
2022/11/15 06:43:31;;;;;;;35.42;18.88;;;9.80;99.90;;;;;;5114502;28;20044;-83
2022/11/15 06:45:59;;;;;;;32.78;17.95;;;9.80;99.90;;;;;;5115503;28;20041;-77
2022/11/15 06:48:25;;;;;;;32.47;19.58;;;10.20;99.90;;;;;;5116067;28;20395;-79
2022/11/15 06:50:57;;;;;;;30.67;17.95;;;10.90;99.90;;;;;;5115220;28;20040;-75
2022/11/15 06:53:23;;;;;;;32.60;17.67;;;9.80;99.90;;;;;;5115527;28;20039;-77
2022/11/15 06:55:49;;;;;;;27.80;17.53;;;10.00;99.90;;;;;;5115177;28;20059;-74
2022/11/15 06:58:14;;;;;;;27.95;17.40;;;10.10;99.90;;;;;;5115103;28;20480;-75
2022/11/15 07:00:40;;;;;;;28.60;17.52;;;10.30;99.90;;;;;;5114957;28;20535;-78
2022/11/15 07:03:06;;;;;;;34.70;18.80;;;9.70;99.90;;;;;;5115359;28;20039;-80
2022/11/15 07:05:32;;;;;;;34.13;17.23;;;10.00;99.90;;;;;;5115163;28;20122;-78
2022/11/15 07:07:58;;;;;;;29.45;16.35;;;9.90;99.90;;;;;;5115284;28;20457;-79
2022/11/15 07:10:25;;;;;;;31.60;16.30;;;9.80;99.90;;;;;;5115627;28;20039;-79
2022/11/15 07:12:52;;;;;;;32.25;18.02;;;10.30;99.90;;;;;;5114990;28;20043;-79
2022/11/15 07:15:18;;;;;;;29.77;17.00;;;10.00;99.90;;;;;;5114855;28;20126;-78
2022/11/15 07:17:44;;;;;;;28.38;16.83;;;9.80;99.90;;;;;;5114870;28;20044;-79
2022/11/15 07:20:10;;;;;;;29.88;16.83;;;11.10;99.90;;;;;;5113527;28;20093;-79
2022/11/15 07:22:35;;;;;;;31.48;16.45;;;10.20;99.90;;;;;;5114775;28;20071;-79
2022/11/15 07:25:01;;;;;;;25.88;15.98;;;9.80;99.90;;;;;;5114930;28;20039;-81
2022/11/15 07:27:27;;;;;;;27.25;16.27;;;10.30;99.90;;;;;;5114837;28;20079;-77
2022/11/15 07:29:52;;;;;;;25.98;16.45;;;10.90;99.90;;;;;;5114597;28;20055;-77
2022/11/15 07:32:18;;;;;;;24.75;16.23;;;10.10;99.90;;;;;;5114566;28;20058;-79
2022/11/15 07:34:45;;;;;;;23.48;15.35;;;11.30;99.90;;;;;;5115202;28;20048;-82
2022/11/15 07:37:11;;;;;;;25.33;15.15;;;11.20;99.90;;;;;;5113374;28;20433;-81
2022/11/15 07:39:36;;;;;;;24.38;16.08;;;10.30;99.90;;;;;;5114555;28;20172;-81
2022/11/15 07:44:46;;;;;;;26.85;16.45;;;10.40;99.90;;;;;;5115014;28;20403;-83
2022/11/15 07:47:12;;;;;;;30.23;16.67;;;10.10;99.90;;;;;;5114548;28;20080;-85
2022/11/15 07:49:38;;;;;;;25.27;16.45;;;10.40;99.90;;;;;;5113578;28;20044;-83
2022/11/15 07:52:03;;;;;;;23.27;15.15;;;10.40;99.90;;;;;;5114406;28;20040;-82
2022/11/15 07:54:29;;;;;;;25.60;15.82;;;11.10;99.90;;;;;;5114309;28;20122;-81
2022/11/15 07:56:55;;;;;;;25.27;16.02;;;12.00;99.90;;;;;;5114012;28;20092;-81
2022/11/15 07:59:20;;;;;;;23.80;16.13;;;10.20;99.90;;;;;;5114306;28;20039;-83
2022/11/15 08:01:46;;;;;;;27.55;15.43;;;11.40;99.90;;;;;;5114377;28;20134;-78
2022/11/15 08:04:11;;;;;;;25.48;16.92;;;11.40;99.90;;;;;;5114321;28;20071;-79
2022/11/15 08:06:37;;;;;;;23.65;16.75;;;10.60;99.90;;;;;;5114559;28;20036;-79
2022/11/15 08:09:03;;;;;;;28.98;15.68;;;10.40;99.90;;;;;;5114477;28;20044;-79
2022/11/15 08:11:29;;;;;;;25.50;16.30;;;10.30;99.90;;;;;;5115628;28;20043;-79
2022/11/15 08:13:55;;;;;;;25.48;17.17;;;10.30;99.90;;;;;;5114092;28;20036;-79
2022/11/15 08:16:20;;;;;;;25.20;16.92;;;10.70;99.90;;;;;;5114196;28;20112;-79
2022/11/15 08:18:46;;;;;;;28.23;17.48;;;10.80;99.90;;;;;;5112929;28;20073;-80
2022/11/15 08:21:17;;;;;;;24.93;16.40;;;10.80;99.90;;;;;;5114021;28;20040;-78
2022/11/15 08:23:43;;;;;;;25.30;17.25;;;10.70;99.90;;;;;;5114252;28;20050;-79
2022/11/15 08:26:08;;;;;;;31.83;17.17;;;11.10;99.90;;;;;;5114047;28;20052;-79
2022/11/15 08:28:34;;;;;;;25.33;16.88;;;11.50;99.90;;;;;;5114088;28;20039;-81
2022/11/15 08:31:00;;;;;;;28.23;18.08;;;11.30;99.90;;;;;;5113966;28;20055;-81
2022/11/15 08:33:25;;;;;;;30.10;18.27;;;10.80;99.90;;;;;;5117107;28;20093;-80
2022/11/15 08:35:51;;;;;;;29.20;17.98;;;10.70;99.90;;;;;;5118207;28;20051;-80
2022/11/15 08:38:17;;;;;;;27.15;18.70;;;10.60;99.90;;;;;;5100135;28;20130;-83
2022/11/15 08:40:42;;;;;;;30.20;19.67;;;10.70;99.90;;;;;;5117652;28;20075;-80
2022/11/15 08:43:08;;;;;;;30.92;18.42;;;10.90;99.90;;;;;;5116358;28;20046;-81
2022/11/15 08:45:35;;;;;;;30.95;18.92;;;11.00;99.90;;;;;;5117810;28;20040;-81
2022/11/15 08:48:02;;;;;;;27.92;19.58;;;10.90;99.90;;;;;;5117636;28;20043;-80
2022/11/15 08:50:28;;;;;;;30.35;18.63;;;10.80;99.90;;;;;;5118308;28;20066;-80
2022/11/15 08:52:53;;;;;;;29.55;18.05;;;11.10;99.90;;;;;;5117795;28;20471;-81
2022/11/15 08:55:19;;;;;;;27.88;19.08;;;11.00;99.90;;;;;;5116492;28;20050;-81
2022/11/15 08:57:45;;;;;;;29.15;18.50;;;11.00;99.90;;;;;;5117644;28;20083;-78
2022/11/15 09:00:12;;;;;;;29.35;19.75;;;11.60;99.90;;;;;;5116893;28;20134;-75
2022/11/15 09:02:38;;;;;;;;;;;11.00;99.90;;;;;;5117818;28;20048;-76
2022/11/15 09:05:03;;;;;;;31.83;20.02;;;11.00;99.90;;;;;;5117716;28;19927;-78
2022/11/15 09:07:30;;;;;;;29.13;19.48;;;11.00;99.90;;;;;;5126720;27;20052;-77
2022/11/15 09:09:55;;;;;;;32.22;20.80;;;10.50;99.90;;;;;;5138116;27;20095;-79
2022/11/15 09:12:21;;;;;;;28.65;19.67;;;11.00;99.90;;;;;;5137914;27;20172;-76
2022/11/15 09:14:47;;;;;;;27.75;18.73;;;11.00;99.90;;;;;;5138129;27;20117;-79
2022/11/15 09:17:12;;;;;;;31.55;19.83;;;10.90;99.90;;;;;;5137803;27;20042;-79
2022/11/15 09:19:38;;;;;;;30.88;19.75;;;11.40;99.90;;;;;;5137723;27;20035;-78
2022/11/15 09:22:06;;;;;;;32.08;20.08;;;11.40;99.90;;;;;;5137728;27;20043;-78
2022/11/15 09:24:32;;;;;;;32.90;19.08;;;11.10;99.90;;;;;;5137659;27;20039;-79
2022/11/15 09:26:57;;;;;;;27.67;19.75;;;11.60;99.90;;;;;;5137152;27;20039;-81
2022/11/15 09:29:23;;;;;;;31.27;20.33;;;11.80;99.90;;;;;;5137386;27;20518;-82
2022/11/15 09:31:48;;;;;;;30.48;19.80;;;11.70;99.90;;;;;;5137617;27;20055;-79
2022/11/15 09:34:14;;;;;;;27.88;19.45;;;11.50;99.90;;;;;;5136585;27;20051;-80
2022/11/15 09:36:40;;;;;;;26.23;18.35;;;11.30;99.90;;;;;;5137580;27;20047;-79
2022/11/15 09:39:05;;;;;;;27.80;17.90;;;11.30;99.90;;;;;;5136288;27;20054;-78
2022/11/15 09:42:06;;;;;;;20.15;15.85;;;11.40;99.90;;;;;;5136475;27;20043;-79
2022/11/15 09:44:56;;;;;;;24.58;16.92;;;11.30;99.90;;;;;;5137110;27;20537;-78
2022/11/15 09:47:33;;;;;;;24.08;17.58;;;11.30;99.90;;;;;;5136893;27;20039;-78
2022/11/15 09:50:01;;;;;;;24.88;17.10;;;11.30;99.90;;;;;;5136957;27;20047;-81
2022/11/15 09:52:27;;;;;;;27.13;18.60;;;12.00;99.90;;;;;;5135859;27;20039;-79
2022/11/15 09:54:54;;;;;;;23.63;16.65;;;11.90;99.90;;;;;;5137355;27;20107;-80
2022/11/15 09:57:34;;;;;;;25.20;17.80;;;11.30;99.90;;;;;;5136276;27;20134;-78
2022/11/15 10:00:16;;;;;;;27.45;18.42;;;11.30;99.90;;;;;;5137044;27;20491;-80
2022/11/15 10:03:08;;;;;;;28.88;18.48;;;11.40;99.90;;;;;;5136891;27;20501;-79
2022/11/15 10:05:48;;;;;;;25.33;17.98;;;11.30;99.90;;;;;;5133838;27;20043;-80
2022/11/15 10:08:44;;;;;;;23.15;16.92;;;11.30;99.90;;;;;;5136939;27;20031;-80
2022/11/15 10:11:14;;;;;;;24.98;15.93;;;11.40;99.90;;;;;;5136856;27;20092;-77
2022/11/15 10:13:44;;;;;;;23.52;16.10;;;11.40;99.90;;;;;;5137020;27;20043;-77
2022/11/15 10:16:40;;;;;;;22.13;15.73;;;10.90;99.90;;;;;;5136807;27;20051;-78
2022/11/15 10:19:18;;;;;;;23.23;16.10;;;11.40;99.90;;;;;;5135437;27;20046;-78
2022/11/15 10:22:02;;;;;;;;;;;11.40;99.90;;;;;;5136667;27;20498;-78
2022/11/15 10:24:34;;;;;;;18.38;14.27;;;11.40;99.90;;;;;;5136311;27;20424;-79
2022/11/15 10:27:00;;;;;;;22.33;14.52;;;12.20;99.90;;;;;;5136476;27;20047;-79
2022/11/15 10:29:26;;;;;;;24.20;15.82;;;11.40;99.90;;;;;;5136509;27;20047;-77
2022/11/15 10:31:51;;;;;;;21.58;14.20;;;11.60;99.90;;;;;;5136471;27;20042;-78
2022/11/15 10:34:20;;;;;;;20.17;14.57;;;11.30;99.90;;;;;;5135928;27;20094;-77
2022/11/15 10:36:53;;;;;;;23.48;14.98;;;11.50;99.90;;;;;;5136340;27;20083;-79
2022/11/15 10:39:19;;;;;;;22.67;14.70;;;11.40;99.90;;;;;;5136332;27;20047;-79
2022/11/15 10:41:45;;;;;;;18.50;14.55;;;12.00;99.90;;;;;;5136263;27;20039;-79
2022/11/15 10:44:16;;;;;;;20.63;14.93;;;11.50;99.90;;;;;;5136038;27;20051;-79
2022/11/15 10:46:45;;;;;;;23.00;14.35;;;11.60;99.90;;;;;;5135955;27;20047;-78
2022/11/15 10:49:27;;;;;;;18.27;13.07;;;11.70;99.90;;;;;;5135292;27;20452;-80
2022/11/15 10:51:59;;;;;;;18.45;13.43;;;11.70;99.90;;;;;;5135393;27;20043;-80
2022/11/15 10:54:34;;;;;;;18.08;12.50;;;11.30;99.90;;;;;;5135821;27;20078;-80
2022/11/15 10:57:05;;;;;;;16.35;11.80;;;11.80;99.90;;;;;;5135879;27;20380;-80
2022/11/15 10:59:33;;;;;;;15.48;10.70;;;11.70;99.90;;;;;;5135907;27;20043;-80
2022/11/15 11:01:59;;;;;;;12.90;10.73;;;12.10;99.90;;;;;;5135738;27;20483;-78
2022/11/15 11:04:25;;;;;;;12.02;9.73;;;11.90;99.90;;;;;;5135786;27;20368;-81
2022/11/15 11:06:57;;;;;;;11.10;9.40;;;12.00;99.90;;;;;;5135361;27;20050;-80
2022/11/15 11:09:42;;;;;;;10.60;8.13;;;12.10;99.90;;;;;;5135376;27;20043;-79
2022/11/15 11:12:11;;;;;;;10.30;7.95;;;12.20;99.90;;;;;;5135645;27;20035;-78
2022/11/15 11:14:38;;;;;;;9.45;6.80;;;12.30;99.90;;;;;;5137018;27;20433;-81
2022/11/15 11:17:43;;;;;;;9.25;6.45;;;12.40;99.90;;;;;;5118107;27;20046;-81
2022/11/15 11:20:50;;;;;;;8.27;6.25;;;12.50;99.90;;;;;;5094185;27;20461;-80
2022/11/15 11:23:16;;;;;;;6.35;5.60;;;12.50;99.90;;;;;;5133614;27;20528;-79
2022/11/15 11:26:09;;;;;;;7.43;5.28;;;12.50;99.90;;;;;;5134835;27;20090;-80
2022/11/15 11:28:47;;;;;;;6.70;5.57;;;12.50;99.90;;;;;;5135139;27;20039;-79
2022/11/15 11:31:48;;;;;;;7.72;5.18;;;12.50;99.90;;;;;;5135349;27;20479;-81
2022/11/15 11:34:42;;;;;;;6.35;4.30;;;12.60;99.90;;;;;;5135389;27;20476;-79
2022/11/15 11:37:17;;;;;;;9.02;4.60;;;12.80;99.90;;;;;;5135095;27;20053;-82
2022/11/15 11:39:59;;;;;;;6.65;4.60;;;13.00;99.90;;;;;;5135811;27;20457;-83
2022/11/15 11:42:58;;;;;;;9.40;4.63;;;12.90;99.90;;;;;;5135314;27;20069;-80
2022/11/15 11:45:58;;;;;;;6.75;4.43;;;12.90;99.90;;;;;;5135656;27;20071;-80
2022/11/15 11:48:42;;;;;;;7.32;4.40;;;12.80;99.90;;;;;;5134951;27;20387;-78
2022/11/15 11:51:24;;;;;;;9.13;4.53;;;12.70;99.90;;;;;;5134933;27;20054;-80
2022/11/15 11:53:57;;;;;;;8.13;4.03;;;12.80;99.90;;;;;;5133940;27;20122;-78
2022/11/15 11:56:25;;;;;;;5.40;4.00;;;12.80;99.90;;;;;;5135307;27;20043;-81
2022/11/15 11:58:54;;;;;;;7.03;4.30;;;12.70;99.90;;;;;;5134890;27;20051;-78
2022/11/15 12:01:32;;;;;;;8.35;4.07;;;12.60;99.90;;;;;;5134795;27;20043;-81
2022/11/15 12:04:09;;;;;;;6.15;4.10;;;12.70;99.90;;;;;;5134947;27;20107;-79
2022/11/15 12:06:55;;;;;;;;;;;12.50;99.90;;;;;;5134507;27;20075;-84
2022/11/15 12:09:37;;;;;;;5.22;3.78;;;12.50;99.90;;;;;;5134776;27;19923;-81
2022/11/15 12:12:18;;;;;;;5.20;3.60;;;12.50;99.90;;;;;;5134979;27;20367;-81
2022/11/15 12:15:13;;;;;;;7.43;3.70;;;12.80;99.90;;;;;;5134575;27;20497;-79
2022/11/15 12:17:40;;;;;;;5.00;3.42;;;12.40;99.90;;;;;;5133112;28;20054;-79
2022/11/15 12:20:28;;;;;;;4.75;3.50;;;12.40;99.90;;;;;;5134815;27;20043;-81
2022/11/15 12:23:04;;;;;;;5.10;3.30;;;11.80;99.90;;;;;;5135306;27;20425;-81
2022/11/15 12:25:44;;;;;;;4.15;3.30;;;12.40;99.90;;;;;;5134855;27;20042;-80
2022/11/15 12:28:27;;;;;;;6.88;3.78;;;12.40;99.90;;;;;;5134424;27;20085;-80
2022/11/15 12:31:18;;;;;;;4.78;3.30;;;12.40;99.90;;;;;;5134981;27;20122;-82
2022/11/15 12:33:47;;;;;;;6.10;3.40;;;12.30;99.90;;;;;;5134716;28;20078;-81
2022/11/15 12:36:38;;;;;;;4.80;3.33;;;12.40;99.90;;;;;;5134876;27;20107;-80
2022/11/15 12:39:08;;;;;;;6.00;3.10;;;12.40;99.90;;;;;;5134558;27;20387;-79
2022/11/15 12:41:58;;;;;;;7.15;3.60;;;12.50;99.90;;;;;;5134937;27;20047;-81
2022/11/15 12:44:37;;;;;;;5.57;3.13;;;12.70;99.90;;;;;;5092382;27;20062;-79
2022/11/15 12:47:08;;;;;;;7.72;3.53;;;12.80;99.90;;;;;;5134269;27;20046;-79
2022/11/15 12:49:37;;;;;;;6.05;3.30;;;12.80;99.90;;;;;;5134502;28;20387;-79
2022/11/15 12:52:05;;;;;;;5.10;3.40;;;12.90;99.90;;;;;;5134020;28;20039;-81
2022/11/15 12:54:34;;;;;;;5.82;3.05;;;12.80;99.90;;;;;;5134159;27;20514;-81
2022/11/15 12:57:02;;;;;;;4.18;2.97;;;12.80;99.90;;;;;;5134404;28;20047;-80
2022/11/15 12:59:51;;;;;;;5.47;2.75;;;12.70;99.90;;;;;;5134486;28;20450;-80
2022/11/15 13:02:25;;;;;;;4.65;3.00;;;12.80;99.90;;;;;;5134282;27;20043;-80
2022/11/15 13:04:54;;;;;;;5.43;2.65;;;13.30;99.90;;;;;;5134090;27;20058;-81
2022/11/15 13:07:34;;;;;;;4.20;2.30;;;12.80;99.90;;;;;;5134209;27;20039;-81